sensor_id;sensor_type;location;lat;lon;timestamp;temperature;humidity
51922;DHT22;37948;53.260;6.394;2023-03-21T00:00:53;8.70;99.90
51922;DHT22;37948;53.260;6.394;2023-03-21T00:03:19;8.70;99.90
51922;DHT22;37948;53.260;6.394;2023-03-21T00:05:45;8.70;99.90
51922;DHT22;37948;53.260;6.394;2023-03-21T00:08:14;8.70;99.90
51922;DHT22;37948;53.260;6.394;2023-03-21T00:10:40;8.70;99.90
51922;DHT22;37948;53.260;6.394;2023-03-21T00:13:06;8.70;99.90
51922;DHT22;37948;53.260;6.394;2023-03-21T00:15:32;8.70;99.90
51922;DHT22;37948;53.260;6.394;2023-03-21T00:17:58;8.70;99.90
51922;DHT22;37948;53.260;6.394;2023-03-21T00:20:31;8.70;99.90
51922;DHT22;37948;53.260;6.394;2023-03-21T00:22:59;8.70;99.90
51922;DHT22;37948;53.260;6.394;2023-03-21T00:25:26;8.70;99.90
51922;DHT22;37948;53.260;6.394;2023-03-21T00:27:52;8.70;99.90
51922;DHT22;37948;53.260;6.394;2023-03-21T00:30:18;8.70;99.90
51922;DHT22;37948;53.260;6.394;2023-03-21T00:32:45;8.70;99.90
51922;DHT22;37948;53.260;6.394;2023-03-21T00:35:11;8.70;99.90
51922;DHT22;37948;53.260;6.394;2023-03-21T00:37:37;8.70;99.90
51922;DHT22;37948;53.260;6.394;2023-03-21T00:40:03;8.70;99.90
51922;DHT22;37948;53.260;6.394;2023-03-21T00:42:34;8.70;99.90
51922;DHT22;37948;53.260;6.394;2023-03-21T00:45:01;8.80;99.90
51922;DHT22;37948;53.260;6.394;2023-03-21T00:47:26;8.70;99.90
51922;DHT22;37948;53.260;6.394;2023-03-21T00:49:52;8.80;99.90
51922;DHT22;37948;53.260;6.394;2023-03-21T00:52:18;8.80;99.90
51922;DHT22;37948;53.260;6.394;2023-03-21T00:54:44;8.70;99.90
51922;DHT22;37948;53.260;6.394;2023-03-21T00:57:10;8.80;99.90
51922;DHT22;37948;53.260;6.394;2023-03-21T00:59:35;8.80;99.90
51922;DHT22;37948;53.260;6.394;2023-03-21T01:02:01;8.80;99.90
51922;DHT22;37948;53.260;6.394;2023-03-21T01:04:27;8.70;99.90
51922;DHT22;37948;53.260;6.394;2023-03-21T01:06:53;8.80;99.90
51922;DHT22;37948;53.260;6.394;2023-03-21T01:09:22;8.70;99.90
51922;DHT22;37948;53.260;6.394;2023-03-21T01:11:49;8.80;99.90
51922;DHT22;37948;53.260;6.394;2023-03-21T01:14:20;8.80;99.90
51922;DHT22;37948;53.260;6.394;2023-03-21T01:16:47;8.80;99.90
51922;DHT22;37948;53.260;6.394;2023-03-21T01:19:16;8.80;99.90
51922;DHT22;37948;53.260;6.394;2023-03-21T01:21:42;8.80;99.90
51922;DHT22;37948;53.260;6.394;2023-03-21T01:26:37;8.80;99.90
51922;DHT22;37948;53.260;6.394;2023-03-21T01:29:04;8.80;99.90
51922;DHT22;37948;53.260;6.394;2023-03-21T01:31:29;8.80;99.90
51922;DHT22;37948;53.260;6.394;2023-03-21T01:33:55;8.80;99.90
51922;DHT22;37948;53.260;6.394;2023-03-21T01:36:23;8.80;99.90
51922;DHT22;37948;53.260;6.394;2023-03-21T01:38:50;8.80;99.90
51922;DHT22;37948;53.260;6.394;2023-03-21T01:43:47;8.80;99.90
51922;DHT22;37948;53.260;6.394;2023-03-21T01:46:33;8.80;99.90
51922;DHT22;37948;53.260;6.394;2023-03-21T01:49:06;8.80;99.90
51922;DHT22;37948;53.260;6.394;2023-03-21T01:51:36;8.80;99.90
51922;DHT22;37948;53.260;6.394;2023-03-21T01:54:04;8.80;99.90
51922;DHT22;37948;53.260;6.394;2023-03-21T01:56:36;8.80;99.90
51922;DHT22;37948;53.260;6.394;2023-03-21T01:59:13;8.80;99.90
51922;DHT22;37948;53.260;6.394;2023-03-21T02:01:42;8.80;99.90
51922;DHT22;37948;53.260;6.394;2023-03-21T02:04:09;8.80;99.90
51922;DHT22;37948;53.260;6.394;2023-03-21T02:06:47;8.80;99.90
51922;DHT22;37948;53.260;6.394;2023-03-21T02:09:18;8.80;99.90
51922;DHT22;37948;53.260;6.394;2023-03-21T02:11:46;8.80;99.90
51922;DHT22;37948;53.260;6.394;2023-03-21T02:14:14;8.80;99.90
51922;DHT22;37948;53.260;6.394;2023-03-21T02:17:09;8.80;99.90
51922;DHT22;37948;53.260;6.394;2023-03-21T02:25:48;8.80;99.90
51922;DHT22;37948;53.260;6.394;2023-03-21T02:28:27;8.80;99.90
51922;DHT22;37948;53.260;6.394;2023-03-21T02:36:31;8.90;99.90
51922;DHT22;37948;53.260;6.394;2023-03-21T02:39:23;8.90;99.90
51922;DHT22;37948;53.260;6.394;2023-03-21T02:46:55;8.90;99.90
51922;DHT22;37948;53.260;6.394;2023-03-21T02:49:43;8.90;99.90
51922;DHT22;37948;53.260;6.394;2023-03-21T02:52:15;8.90;99.90
51922;DHT22;37948;53.260;6.394;2023-03-21T02:54:42;8.90;99.90
51922;DHT22;37948;53.260;6.394;2023-03-21T02:57:08;8.80;99.90
51922;DHT22;37948;53.260;6.394;2023-03-21T02:59:35;8.90;99.90
51922;DHT22;37948;53.260;6.394;2023-03-21T03:02:02;8.90;99.90
51922;DHT22;37948;53.260;6.394;2023-03-21T03:04:28;8.90;99.90
51922;DHT22;37948;53.260;6.394;2023-03-21T03:07:04;8.90;99.90
51922;DHT22;37948;53.260;6.394;2023-03-21T03:12:53;8.90;99.90
51922;DHT22;37948;53.260;6.394;2023-03-21T03:15:38;8.90;99.90
51922;DHT22;37948;53.260;6.394;2023-03-21T03:24:02;8.90;99.90
51922;DHT22;37948;53.260;6.394;2023-03-21T03:26:44;8.90;99.90
51922;DHT22;37948;53.260;6.394;2023-03-21T03:29:14;8.80;99.90
51922;DHT22;37948;53.260;6.394;2023-03-21T03:32:05;8.90;99.90
51922;DHT22;37948;53.260;6.394;2023-03-21T03:34:36;8.90;99.90
51922;DHT22;37948;53.260;6.394;2023-03-21T03:37:06;8.90;99.90
51922;DHT22;37948;53.260;6.394;2023-03-21T03:39:36;8.90;99.90
51922;DHT22;37948;53.260;6.394;2023-03-21T03:42:19;8.90;99.90
51922;DHT22;37948;53.260;6.394;2023-03-21T03:44:45;8.90;99.90
51922;DHT22;37948;53.260;6.394;2023-03-21T03:47:37;8.90;99.90
51922;DHT22;37948;53.260;6.394;2023-03-21T03:50:25;8.90;99.90
51922;DHT22;37948;53.260;6.394;2023-03-21T03:52:56;8.90;99.90
51922;DHT22;37948;53.260;6.394;2023-03-21T03:55:24;8.90;99.90
51922;DHT22;37948;53.260;6.394;2023-03-21T03:57:52;8.90;99.90
51922;DHT22;37948;53.260;6.394;2023-03-21T04:00:18;8.90;99.90
51922;DHT22;37948;53.260;6.394;2023-03-21T04:02:45;8.90;99.90
51922;DHT22;37948;53.260;6.394;2023-03-21T04:05:11;8.90;99.90
51922;DHT22;37948;53.260;6.394;2023-03-21T04:07:37;8.90;99.90
51922;DHT22;37948;53.260;6.394;2023-03-21T04:10:04;8.90;99.90
51922;DHT22;37948;53.260;6.394;2023-03-21T04:12:29;8.90;99.90
51922;DHT22;37948;53.260;6.394;2023-03-21T04:14:55;8.90;99.90
51922;DHT22;37948;53.260;6.394;2023-03-21T04:17:21;8.90;99.90
51922;DHT22;37948;53.260;6.394;2023-03-21T04:19:47;8.90;99.90
51922;DHT22;37948;53.260;6.394;2023-03-21T04:22:15;8.90;99.90
51922;DHT22;37948;53.260;6.394;2023-03-21T04:24:41;8.90;99.90
51922;DHT22;37948;53.260;6.394;2023-03-21T04:27:07;8.90;99.90
51922;DHT22;37948;53.260;6.394;2023-03-21T04:29:32;8.90;99.90
51922;DHT22;37948;53.260;6.394;2023-03-21T04:31:58;8.90;99.90
51922;DHT22;37948;53.260;6.394;2023-03-21T04:34:24;8.90;99.90
51922;DHT22;37948;53.260;6.394;2023-03-21T04:36:53;8.90;99.90
51922;DHT22;37948;53.260;6.394;2023-03-21T04:39:19;8.90;99.90
51922;DHT22;37948;53.260;6.394;2023-03-21T04:41:45;8.90;99.90
51922;DHT22;37948;53.260;6.394;2023-03-21T04:44:12;8.90;99.90
51922;DHT22;37948;53.260;6.394;2023-03-21T04:46:39;8.90;99.90
51922;DHT22;37948;53.260;6.394;2023-03-21T04:49:04;9.00;99.90
51922;DHT22;37948;53.260;6.394;2023-03-21T04:51:32;8.90;99.90
51922;DHT22;37948;53.260;6.394;2023-03-21T04:53:58;8.90;99.90
51922;DHT22;37948;53.260;6.394;2023-03-21T04:56:28;8.90;99.90
51922;DHT22;37948;53.260;6.394;2023-03-21T04:59:00;9.00;99.90
51922;DHT22;37948;53.260;6.394;2023-03-21T05:01:26;8.90;99.90
51922;DHT22;37948;53.260;6.394;2023-03-21T05:04:01;8.90;99.90
51922;DHT22;37948;53.260;6.394;2023-03-21T05:06:27;8.90;99.90
51922;DHT22;37948;53.260;6.394;2023-03-21T05:08:57;8.90;99.90
51922;DHT22;37948;53.260;6.394;2023-03-21T05:11:26;8.90;99.90
51922;DHT22;37948;53.260;6.394;2023-03-21T05:13:55;8.90;99.90
51922;DHT22;37948;53.260;6.394;2023-03-21T05:16:20;8.90;99.90
51922;DHT22;37948;53.260;6.394;2023-03-21T05:18:51;8.90;99.90
51922;DHT22;37948;53.260;6.394;2023-03-21T05:21:19;8.90;99.90
51922;DHT22;37948;53.260;6.394;2023-03-21T05:23:45;8.90;99.90
51922;DHT22;37948;53.260;6.394;2023-03-21T05:26:19;8.90;99.90
51922;DHT22;37948;53.260;6.394;2023-03-21T05:28:45;8.90;99.90
51922;DHT22;37948;53.260;6.394;2023-03-21T05:31:13;8.90;99.90
51922;DHT22;37948;53.260;6.394;2023-03-21T05:33:41;8.90;99.90
51922;DHT22;37948;53.260;6.394;2023-03-21T05:36:08;8.90;99.90
51922;DHT22;37948;53.260;6.394;2023-03-21T05:38:33;8.90;99.90
51922;DHT22;37948;53.260;6.394;2023-03-21T05:40:59;9.00;99.90
51922;DHT22;37948;53.260;6.394;2023-03-21T05:43:25;8.90;99.90
51922;DHT22;37948;53.260;6.394;2023-03-21T05:45:51;9.00;99.90
51922;DHT22;37948;53.260;6.394;2023-03-21T05:48:17;8.90;99.90
51922;DHT22;37948;53.260;6.394;2023-03-21T05:50:43;8.90;99.90
51922;DHT22;37948;53.260;6.394;2023-03-21T05:53:08;9.00;99.90
51922;DHT22;37948;53.260;6.394;2023-03-21T05:55:34;9.00;99.90
51922;DHT22;37948;53.260;6.394;2023-03-21T05:58:00;9.00;99.90
51922;DHT22;37948;53.260;6.394;2023-03-21T06:00:25;9.00;99.90
51922;DHT22;37948;53.260;6.394;2023-03-21T06:02:51;9.00;99.90
51922;DHT22;37948;53.260;6.394;2023-03-21T06:05:17;9.00;99.90
51922;DHT22;37948;53.260;6.394;2023-03-21T06:07:42;9.00;99.90
51922;DHT22;37948;53.260;6.394;2023-03-21T06:10:08;9.00;99.90
51922;DHT22;37948;53.260;6.394;2023-03-21T06:12:34;9.00;99.90
51922;DHT22;37948;53.260;6.394;2023-03-21T06:15:01;9.00;99.90
51922;DHT22;37948;53.260;6.394;2023-03-21T06:17:27;9.00;99.90
51922;DHT22;37948;53.260;6.394;2023-03-21T06:19:52;9.00;99.90
51922;DHT22;37948;53.260;6.394;2023-03-21T06:22:21;9.00;99.90
51922;DHT22;37948;53.260;6.394;2023-03-21T06:24:46;9.00;99.90
51922;DHT22;37948;53.260;6.394;2023-03-21T06:27:13;9.00;99.90
51922;DHT22;37948;53.260;6.394;2023-03-21T06:29:38;9.00;99.90
51922;DHT22;37948;53.260;6.394;2023-03-21T06:32:04;9.10;99.90
51922;DHT22;37948;53.260;6.394;2023-03-21T06:34:32;9.00;99.90
51922;DHT22;37948;53.260;6.394;2023-03-21T06:36:57;9.00;99.90
51922;DHT22;37948;53.260;6.394;2023-03-21T06:39:23;9.00;99.90
51922;DHT22;37948;53.260;6.394;2023-03-21T06:41:48;9.10;99.90
51922;DHT22;37948;53.260;6.394;2023-03-21T06:44:14;9.00;99.90
51922;DHT22;37948;53.260;6.394;2023-03-21T06:46:40;9.10;99.90
51922;DHT22;37948;53.260;6.394;2023-03-21T06:49:05;9.10;99.90
51922;DHT22;37948;53.260;6.394;2023-03-21T06:51:31;9.10;99.90
51922;DHT22;37948;53.260;6.394;2023-03-21T06:53:56;9.10;99.90
51922;DHT22;37948;53.260;6.394;2023-03-21T06:56:22;9.10;99.90
51922;DHT22;37948;53.260;6.394;2023-03-21T06:58:48;9.10;99.90
51922;DHT22;37948;53.260;6.394;2023-03-21T07:01:14;9.20;99.90
51922;DHT22;37948;53.260;6.394;2023-03-21T07:03:39;9.20;99.90
51922;DHT22;37948;53.260;6.394;2023-03-21T07:06:09;9.20;99.90
51922;DHT22;37948;53.260;6.394;2023-03-21T07:08:37;9.20;99.90
51922;DHT22;37948;53.260;6.394;2023-03-21T07:11:03;9.20;99.90
51922;DHT22;37948;53.260;6.394;2023-03-21T07:13:29;9.20;99.90
51922;DHT22;37948;53.260;6.394;2023-03-21T07:15:54;9.20;99.90
51922;DHT22;37948;53.260;6.394;2023-03-21T07:18:20;9.20;99.90
51922;DHT22;37948;53.260;6.394;2023-03-21T07:20:47;9.30;99.90
51922;DHT22;37948;53.260;6.394;2023-03-21T07:23:16;9.20;99.90
51922;DHT22;37948;53.260;6.394;2023-03-21T07:25:42;9.30;99.90
51922;DHT22;37948;53.260;6.394;2023-03-21T07:28:08;9.30;99.90
51922;DHT22;37948;53.260;6.394;2023-03-21T07:30:34;9.30;99.90
51922;DHT22;37948;53.260;6.394;2023-03-21T07:33:01;9.30;99.90
51922;DHT22;37948;53.260;6.394;2023-03-21T07:35:27;9.30;99.90
51922;DHT22;37948;53.260;6.394;2023-03-21T07:37:52;9.30;99.90
51922;DHT22;37948;53.260;6.394;2023-03-21T07:40:18;9.30;99.90
51922;DHT22;37948;53.260;6.394;2023-03-21T07:42:43;9.30;99.90
51922;DHT22;37948;53.260;6.394;2023-03-21T07:45:12;9.30;99.90
51922;DHT22;37948;53.260;6.394;2023-03-21T07:47:45;9.30;99.90
51922;DHT22;37948;53.260;6.394;2023-03-21T07:50:11;9.30;99.90
51922;DHT22;37948;53.260;6.394;2023-03-21T07:52:37;9.30;99.90
51922;DHT22;37948;53.260;6.394;2023-03-21T07:55:03;9.30;99.90
51922;DHT22;37948;53.260;6.394;2023-03-21T07:57:29;9.30;99.90
51922;DHT22;37948;53.260;6.394;2023-03-21T07:59:54;9.30;99.90
51922;DHT22;37948;53.260;6.394;2023-03-21T08:02:20;9.40;99.90
51922;DHT22;37948;53.260;6.394;2023-03-21T08:04:45;9.40;99.90
51922;DHT22;37948;53.260;6.394;2023-03-21T08:07:12;9.40;99.90
51922;DHT22;37948;53.260;6.394;2023-03-21T08:09:41;9.40;99.90
51922;DHT22;37948;53.260;6.394;2023-03-21T08:12:07;9.40;99.90
51922;DHT22;37948;53.260;6.394;2023-03-21T08:14:33;9.40;99.90
51922;DHT22;37948;53.260;6.394;2023-03-21T08:17:00;9.40;99.90
51922;DHT22;37948;53.260;6.394;2023-03-21T08:19:25;9.50;99.90
51922;DHT22;37948;53.260;6.394;2023-03-21T08:21:52;9.50;99.90
51922;DHT22;37948;53.260;6.394;2023-03-21T08:24:18;9.40;99.90
51922;DHT22;37948;53.260;6.394;2023-03-21T08:26:44;9.40;99.90
51922;DHT22;37948;53.260;6.394;2023-03-21T08:29:13;9.40;99.90
51922;DHT22;37948;53.260;6.394;2023-03-21T08:31:39;9.50;99.90
51922;DHT22;37948;53.260;6.394;2023-03-21T08:34:05;9.40;99.90
51922;DHT22;37948;53.260;6.394;2023-03-21T08:36:32;9.40;99.90
51922;DHT22;37948;53.260;6.394;2023-03-21T08:38:58;9.40;99.90
51922;DHT22;37948;53.260;6.394;2023-03-21T08:41:31;9.40;99.90
51922;DHT22;37948;53.260;6.394;2023-03-21T08:43:56;9.40;99.90
51922;DHT22;37948;53.260;6.394;2023-03-21T08:46:22;9.40;99.90
51922;DHT22;37948;53.260;6.394;2023-03-21T08:48:48;9.50;99.90
51922;DHT22;37948;53.260;6.394;2023-03-21T08:51:14;9.50;99.90
51922;DHT22;37948;53.260;6.394;2023-03-21T08:53:39;9.40;99.90
51922;DHT22;37948;53.260;6.394;2023-03-21T08:56:06;9.50;99.90
51922;DHT22;37948;53.260;6.394;2023-03-21T08:58:32;9.40;99.90
51922;DHT22;37948;53.260;6.394;2023-03-21T09:00:58;9.40;99.90
51922;DHT22;37948;53.260;6.394;2023-03-21T09:03:23;9.40;99.90
51922;DHT22;37948;53.260;6.394;2023-03-21T09:05:55;9.40;99.90
51922;DHT22;37948;53.260;6.394;2023-03-21T09:08:21;9.50;99.90
51922;DHT22;37948;53.260;6.394;2023-03-21T09:10:48;9.50;99.90
51922;DHT22;37948;53.260;6.394;2023-03-21T09:13:17;9.50;99.90
51922;DHT22;37948;53.260;6.394;2023-03-21T09:15:42;9.50;99.90
51922;DHT22;37948;53.260;6.394;2023-03-21T09:18:09;9.50;99.90
51922;DHT22;37948;53.260;6.394;2023-03-21T09:20:41;9.50;99.90
51922;DHT22;37948;53.260;6.394;2023-03-21T09:23:07;9.50;99.90
51922;DHT22;37948;53.260;6.394;2023-03-21T09:25:34;9.50;99.90
51922;DHT22;37948;53.260;6.394;2023-03-21T09:28:00;9.50;99.90
51922;DHT22;37948;53.260;6.394;2023-03-21T09:30:30;9.60;99.90
51922;DHT22;37948;53.260;6.394;2023-03-21T09:32:57;9.60;99.90
51922;DHT22;37948;53.260;6.394;2023-03-21T09:35:23;9.60;99.90
51922;DHT22;37948;53.260;6.394;2023-03-21T09:37:52;9.60;99.90
51922;DHT22;37948;53.260;6.394;2023-03-21T09:43:28;9.60;99.90
51922;DHT22;37948;53.260;6.394;2023-03-21T09:46:30;9.60;99.90
51922;DHT22;37948;53.260;6.394;2023-03-21T09:49:05;9.60;99.90
51922;DHT22;37948;53.260;6.394;2023-03-21T09:51:38;9.60;99.90
51922;DHT22;37948;53.260;6.394;2023-03-21T09:54:34;9.70;99.90
51922;DHT22;37948;53.260;6.394;2023-03-21T09:59:59;9.70;99.90
51922;DHT22;37948;53.260;6.394;2023-03-21T10:02:38;9.70;99.90
51922;DHT22;37948;53.260;6.394;2023-03-21T10:05:27;9.70;99.90
51922;DHT22;37948;53.260;6.394;2023-03-21T10:08:27;9.70;99.90
51922;DHT22;37948;53.260;6.394;2023-03-21T10:11:01;9.70;99.90
51922;DHT22;37948;53.260;6.394;2023-03-21T10:13:39;9.70;99.90
51922;DHT22;37948;53.260;6.394;2023-03-21T10:16:14;9.70;99.90
51922;DHT22;37948;53.260;6.394;2023-03-21T10:18:42;9.70;99.90
51922;DHT22;37948;53.260;6.394;2023-03-21T10:21:14;9.70;99.90
51922;DHT22;37948;53.260;6.394;2023-03-21T10:23:43;9.70;99.90
51922;DHT22;37948;53.260;6.394;2023-03-21T10:26:09;9.70;99.90
51922;DHT22;37948;53.260;6.394;2023-03-21T10:28:37;9.60;99.90
51922;DHT22;37948;53.260;6.394;2023-03-21T10:31:06;9.70;99.90
51922;DHT22;37948;53.260;6.394;2023-03-21T10:33:35;9.70;99.90
51922;DHT22;37948;53.260;6.394;2023-03-21T10:36:25;9.70;99.90
51922;DHT22;37948;53.260;6.394;2023-03-21T10:39:15;9.70;99.90
51922;DHT22;37948;53.260;6.394;2023-03-21T10:41:45;9.80;99.90
51922;DHT22;37948;53.260;6.394;2023-03-21T10:44:18;9.80;99.90
51922;DHT22;37948;53.260;6.394;2023-03-21T10:46:55;9.80;99.90
51922;DHT22;37948;53.260;6.394;2023-03-21T10:49:21;9.90;99.90
51922;DHT22;37948;53.260;6.394;2023-03-21T10:51:52;9.90;99.90
51922;DHT22;37948;53.260;6.394;2023-03-21T10:54:21;9.90;99.90
51922;DHT22;37948;53.260;6.394;2023-03-21T10:57:04;10.00;99.90
51922;DHT22;37948;53.260;6.394;2023-03-21T10:59:34;10.00;99.90
51922;DHT22;37948;53.260;6.394;2023-03-21T11:02:02;10.10;99.90
51922;DHT22;37948;53.260;6.394;2023-03-21T11:04:29;10.10;99.90
51922;DHT22;37948;53.260;6.394;2023-03-21T11:07:00;10.10;99.90
51922;DHT22;37948;53.260;6.394;2023-03-21T11:12:11;10.20;99.90
51922;DHT22;37948;53.260;6.394;2023-03-21T11:14:38;10.20;99.90
51922;DHT22;37948;53.260;6.394;2023-03-21T11:20:00;10.30;99.90
51922;DHT22;37948;53.260;6.394;2023-03-21T11:22:35;10.30;99.90
51922;DHT22;37948;53.260;6.394;2023-03-21T11:25:05;10.40;99.90
51922;DHT22;37948;53.260;6.394;2023-03-21T11:27:31;10.40;99.90
51922;DHT22;37948;53.260;6.394;2023-03-21T11:29:59;10.50;99.90
51922;DHT22;37948;53.260;6.394;2023-03-21T11:32:34;10.50;99.90
51922;DHT22;37948;53.260;6.394;2023-03-21T11:35:13;10.50;99.90
51922;DHT22;37948;53.260;6.394;2023-03-21T11:37:51;10.50;99.90
51922;DHT22;37948;53.260;6.394;2023-03-21T11:40:26;10.60;99.90
51922;DHT22;37948;53.260;6.394;2023-03-21T11:42:58;10.60;99.90
51922;DHT22;37948;53.260;6.394;2023-03-21T11:45:32;10.60;99.90
51922;DHT22;37948;53.260;6.394;2023-03-21T11:47:59;10.60;99.90
51922;DHT22;37948;53.260;6.394;2023-03-21T11:50:33;10.60;99.90
51922;DHT22;37948;53.260;6.394;2023-03-21T11:55:50;10.60;99.90
51922;DHT22;37948;53.260;6.394;2023-03-21T11:58:24;10.70;99.90
51922;DHT22;37948;53.260;6.394;2023-03-21T12:01:11;10.70;99.90
51922;DHT22;37948;53.260;6.394;2023-03-21T12:03:45;10.80;99.90
51922;DHT22;37948;53.260;6.394;2023-03-21T12:06:12;10.80;99.90
51922;DHT22;37948;53.260;6.394;2023-03-21T12:13:53;10.80;99.90
51922;DHT22;37948;53.260;6.394;2023-03-21T12:16:48;10.80;99.90
51922;DHT22;37948;53.260;6.394;2023-03-21T12:22:28;10.70;99.90
51922;DHT22;37948;53.260;6.394;2023-03-21T12:25:10;10.80;99.90
51922;DHT22;37948;53.260;6.394;2023-03-21T12:27:52;10.80;99.90
51922;DHT22;37948;53.260;6.394;2023-03-21T12:30:32;10.70;99.90
51922;DHT22;37948;53.260;6.394;2023-03-21T12:41:15;10.70;99.90
51922;DHT22;37948;53.260;6.394;2023-03-21T12:44:10;10.70;99.90
51922;DHT22;37948;53.260;6.394;2023-03-21T12:46:54;10.70;99.90
51922;DHT22;37948;53.260;6.394;2023-03-21T12:51:50;10.70;99.90
51922;DHT22;37948;53.260;6.394;2023-03-21T12:54:29;10.70;99.90
51922;DHT22;37948;53.260;6.394;2023-03-21T13:02:30;10.90;99.90
51922;DHT22;37948;53.260;6.394;2023-03-21T13:05:44;10.90;99.90
51922;DHT22;37948;53.260;6.394;2023-03-21T13:08:20;10.90;99.90
51922;DHT22;37948;53.260;6.394;2023-03-21T13:10:47;11.00;99.90
51922;DHT22;37948;53.260;6.394;2023-03-21T13:18:53;11.10;99.90
51922;DHT22;37948;53.260;6.394;2023-03-21T13:21:42;11.10;99.90
51922;DHT22;37948;53.260;6.394;2023-03-21T13:27:14;11.10;99.90
51922;DHT22;37948;53.260;6.394;2023-03-21T13:32:34;11.30;99.90
51922;DHT22;37948;53.260;6.394;2023-03-21T13:35:12;11.40;99.90
51922;DHT22;37948;53.260;6.394;2023-03-21T13:37:42;11.40;99.90
51922;DHT22;37948;53.260;6.394;2023-03-21T13:40:21;11.40;99.90
51922;DHT22;37948;53.260;6.394;2023-03-21T13:42:55;11.40;99.90
51922;DHT22;37948;53.260;6.394;2023-03-21T13:45:51;11.40;99.90
51922;DHT22;37948;53.260;6.394;2023-03-21T13:48:30;11.40;99.90
51922;DHT22;37948;53.260;6.394;2023-03-21T13:51:01;11.30;99.90
51922;DHT22;37948;53.260;6.394;2023-03-21T13:53:37;11.30;99.90
51922;DHT22;37948;53.260;6.394;2023-03-21T14:04:04;11.40;99.90
51922;DHT22;37948;53.260;6.394;2023-03-21T14:06:35;11.40;99.90
51922;DHT22;37948;53.260;6.394;2023-03-21T14:09:02;11.40;99.90
51922;DHT22;37948;53.260;6.394;2023-03-21T14:11:30;11.50;99.90
51922;DHT22;37948;53.260;6.394;2023-03-21T14:13:58;11.50;99.90
51922;DHT22;37948;53.260;6.394;2023-03-21T14:16:25;11.70;99.90
51922;DHT22;37948;53.260;6.394;2023-03-21T14:19:04;11.90;99.90
51922;DHT22;37948;53.260;6.394;2023-03-21T14:21:32;12.00;99.90
51922;DHT22;37948;53.260;6.394;2023-03-21T14:24:12;12.00;99.90
51922;DHT22;37948;53.260;6.394;2023-03-21T14:26:49;12.00;99.90
51922;DHT22;37948;53.260;6.394;2023-03-21T14:31:50;12.00;99.90
51922;DHT22;37948;53.260;6.394;2023-03-21T14:34:16;12.00;99.90
51922;DHT22;37948;53.260;6.394;2023-03-21T14:36:42;12.00;99.90
51922;DHT22;37948;53.260;6.394;2023-03-21T14:39:21;12.00;99.90
51922;DHT22;37948;53.260;6.394;2023-03-21T14:41:59;12.10;99.90
51922;DHT22;37948;53.260;6.394;2023-03-21T14:44:37;12.20;99.90
51922;DHT22;37948;53.260;6.394;2023-03-21T14:47:15;12.20;99.90
51922;DHT22;37948;53.260;6.394;2023-03-21T14:49:41;12.20;99.90
51922;DHT22;37948;53.260;6.394;2023-03-21T14:52:10;12.20;99.90
51922;DHT22;37948;53.260;6.394;2023-03-21T14:54:43;12.20;99.90
51922;DHT22;37948;53.260;6.394;2023-03-21T14:57:20;12.20;99.90
51922;DHT22;37948;53.260;6.394;2023-03-21T14:59:49;12.30;99.90
51922;DHT22;37948;53.260;6.394;2023-03-21T15:04:58;12.20;99.90
51922;DHT22;37948;53.260;6.394;2023-03-21T15:07:33;12.10;99.90
51922;DHT22;37948;53.260;6.394;2023-03-21T15:10:21;12.10;99.90
51922;DHT22;37948;53.260;6.394;2023-03-21T15:12:52;12.10;99.90
51922;DHT22;37948;53.260;6.394;2023-03-21T15:15:18;12.10;99.90
51922;DHT22;37948;53.260;6.394;2023-03-21T15:17:45;12.00;99.90
51922;DHT22;37948;53.260;6.394;2023-03-21T15:20:15;12.00;99.90
51922;DHT22;37948;53.260;6.394;2023-03-21T15:22:50;11.90;99.90
51922;DHT22;37948;53.260;6.394;2023-03-21T15:25:21;11.80;99.90
51922;DHT22;37948;53.260;6.394;2023-03-21T15:27:48;11.80;99.90
51922;DHT22;37948;53.260;6.394;2023-03-21T15:30:33;11.80;99.90
51922;DHT22;37948;53.260;6.394;2023-03-21T15:33:06;11.80;99.90
51922;DHT22;37948;53.260;6.394;2023-03-21T15:35:42;11.80;99.90
51922;DHT22;37948;53.260;6.394;2023-03-21T15:40:49;11.70;99.90
51922;DHT22;37948;53.260;6.394;2023-03-21T15:43:17;11.70;99.90
51922;DHT22;37948;53.260;6.394;2023-03-21T15:45:51;11.70;99.90
51922;DHT22;37948;53.260;6.394;2023-03-21T15:48:24;11.70;99.90
51922;DHT22;37948;53.260;6.394;2023-03-21T15:50:56;11.70;99.90
51922;DHT22;37948;53.260;6.394;2023-03-21T15:53:23;11.60;99.90
51922;DHT22;37948;53.260;6.394;2023-03-21T15:55:57;11.60;99.90
51922;DHT22;37948;53.260;6.394;2023-03-21T15:58:33;11.60;99.90
51922;DHT22;37948;53.260;6.394;2023-03-21T16:01:16;11.60;99.90
51922;DHT22;37948;53.260;6.394;2023-03-21T16:03:48;11.50;99.90
51922;DHT22;37948;53.260;6.394;2023-03-21T16:06:52;11.60;99.90
51922;DHT22;37948;53.260;6.394;2023-03-21T16:09:21;11.50;99.90
51922;DHT22;37948;53.260;6.394;2023-03-21T16:14:18;11.50;99.90
51922;DHT22;37948;53.260;6.394;2023-03-21T16:16:44;11.40;99.90
51922;DHT22;37948;53.260;6.394;2023-03-21T16:19:10;11.40;99.90
51922;DHT22;37948;53.260;6.394;2023-03-21T16:21:36;11.40;99.90
51922;DHT22;37948;53.260;6.394;2023-03-21T16:24:04;11.30;99.90
51922;DHT22;37948;53.260;6.394;2023-03-21T16:26:35;11.20;99.90
51922;DHT22;37948;53.260;6.394;2023-03-21T16:29:02;11.20;99.90
51922;DHT22;37948;53.260;6.394;2023-03-21T16:31:30;11.20;99.90
51922;DHT22;37948;53.260;6.394;2023-03-21T16:33:56;11.20;99.90
51922;DHT22;37948;53.260;6.394;2023-03-21T16:36:24;11.10;99.90
51922;DHT22;37948;53.260;6.394;2023-03-21T16:38:51;11.10;99.90
51922;DHT22;37948;53.260;6.394;2023-03-21T16:41:17;11.00;99.90
51922;DHT22;37948;53.260;6.394;2023-03-21T16:43:43;10.90;99.90
51922;DHT22;37948;53.260;6.394;2023-03-21T16:46:16;10.90;99.90
51922;DHT22;37948;53.260;6.394;2023-03-21T16:48:43;10.80;99.90
51922;DHT22;37948;53.260;6.394;2023-03-21T16:51:20;10.80;99.90
51922;DHT22;37948;53.260;6.394;2023-03-21T16:53:47;10.80;99.90
51922;DHT22;37948;53.260;6.394;2023-03-21T16:56:24;10.70;99.90
51922;DHT22;37948;53.260;6.394;2023-03-21T16:58:52;10.60;99.90
51922;DHT22;37948;53.260;6.394;2023-03-21T17:01:19;10.60;99.90
51922;DHT22;37948;53.260;6.394;2023-03-21T17:03:46;10.60;99.90
51922;DHT22;37948;53.260;6.394;2023-03-21T17:06:17;10.60;99.90
51922;DHT22;37948;53.260;6.394;2023-03-21T17:08:43;10.60;99.90
51922;DHT22;37948;53.260;6.394;2023-03-21T17:11:15;10.60;99.90
51922;DHT22;37948;53.260;6.394;2023-03-21T17:13:42;10.50;99.90
51922;DHT22;37948;53.260;6.394;2023-03-21T17:16:17;10.50;99.90
51922;DHT22;37948;53.260;6.394;2023-03-21T17:18:43;10.50;99.90
51922;DHT22;37948;53.260;6.394;2023-03-21T17:23:40;10.50;99.90
51922;DHT22;37948;53.260;6.394;2023-03-21T17:26:05;10.50;99.90
51922;DHT22;37948;53.260;6.394;2023-03-21T17:28:35;10.40;99.90
51922;DHT22;37948;53.260;6.394;2023-03-21T17:31:01;10.40;99.90
51922;DHT22;37948;53.260;6.394;2023-03-21T17:33:27;10.40;99.90
51922;DHT22;37948;53.260;6.394;2023-03-21T17:35:52;10.40;99.90
51922;DHT22;37948;53.260;6.394;2023-03-21T17:38:18;10.40;99.90
51922;DHT22;37948;53.260;6.394;2023-03-21T17:40:44;10.30;99.90